sensor_id;sensor_type;location;lat;lon;timestamp;P1;durP1;ratioP1;P2;durP2;ratioP2
5694;SDS011;2872;48.874;9.358;2023-07-29T00:00:47;1.00;;;0.90;;
5694;SDS011;2872;48.874;9.358;2023-07-29T00:03:14;1.30;;;0.90;;
5694;SDS011;2872;48.874;9.358;2023-07-29T00:05:43;0.93;;;0.82;;
5694;SDS011;2872;48.874;9.358;2023-07-29T00:08:10;2.10;;;0.70;;
5694;SDS011;2872;48.874;9.358;2023-07-29T00:10:37;1.30;;;1.10;;
5694;SDS011;2872;48.874;9.358;2023-07-29T00:13:09;3.60;;;0.90;;
5694;SDS011;2872;48.874;9.358;2023-07-29T00:15:36;3.20;;;1.00;;
5694;SDS011;2872;48.874;9.358;2023-07-29T00:18:04;1.50;;;1.40;;
5694;SDS011;2872;48.874;9.358;2023-07-29T00:20:33;2.17;;;0.90;;
5694;SDS011;2872;48.874;9.358;2023-07-29T00:23:00;0.93;;;0.80;;
5694;SDS011;2872;48.874;9.358;2023-07-29T00:25:28;1.25;;;0.80;;
5694;SDS011;2872;48.874;9.358;2023-07-29T00:27:55;1.48;;;0.80;;
5694;SDS011;2872;48.874;9.358;2023-07-29T00:30:28;2.10;;;1.00;;
5694;SDS011;2872;48.874;9.358;2023-07-29T00:32:55;1.45;;;0.80;;
5694;SDS011;2872;48.874;9.358;2023-07-29T00:35:25;1.80;;;0.98;;
5694;SDS011;2872;48.874;9.358;2023-07-29T00:37:52;1.00;;;0.90;;
5694;SDS011;2872;48.874;9.358;2023-07-29T00:40:19;1.00;;;1.00;;
5694;SDS011;2872;48.874;9.358;2023-07-29T00:42:52;3.00;;;0.90;;
5694;SDS011;2872;48.874;9.358;2023-07-29T00:45:19;1.10;;;1.00;;
5694;SDS011;2872;48.874;9.358;2023-07-29T00:47:45;0.80;;;0.70;;
5694;SDS011;2872;48.874;9.358;2023-07-29T00:50:12;3.05;;;1.25;;
5694;SDS011;2872;48.874;9.358;2023-07-29T00:52:41;1.67;;;0.90;;
5694;SDS011;2872;48.874;9.358;2023-07-29T00:55:13;2.97;;;1.30;;
5694;SDS011;2872;48.874;9.358;2023-07-29T00:57:40;1.00;;;0.80;;
5694;SDS011;2872;48.874;9.358;2023-07-29T01:02:49;2.40;;;1.10;;
5694;SDS011;2872;48.874;9.358;2023-07-29T01:05:17;5.27;;;0.90;;
5694;SDS011;2872;48.874;9.358;2023-07-29T01:07:48;2.08;;;1.00;;
5694;SDS011;2872;48.874;9.358;2023-07-29T01:10:26;1.70;;;1.00;;
5694;SDS011;2872;48.874;9.358;2023-07-29T01:13:00;2.47;;;1.00;;
5694;SDS011;2872;48.874;9.358;2023-07-29T01:15:40;0.90;;;0.85;;
5694;SDS011;2872;48.874;9.358;2023-07-29T01:18:11;0.80;;;0.80;;
5694;SDS011;2872;48.874;9.358;2023-07-29T01:20:41;1.40;;;1.25;;
5694;SDS011;2872;48.874;9.358;2023-07-29T01:23:10;2.25;;;0.80;;
5694;SDS011;2872;48.874;9.358;2023-07-29T01:25:41;1.13;;;0.90;;
5694;SDS011;2872;48.874;9.358;2023-07-29T01:28:08;3.58;;;0.90;;
5694;SDS011;2872;48.874;9.358;2023-07-29T01:30:37;3.73;;;1.00;;
5694;SDS011;2872;48.874;9.358;2023-07-29T01:33:09;1.40;;;1.10;;
5694;SDS011;2872;48.874;9.358;2023-07-29T01:35:39;1.20;;;0.93;;
5694;SDS011;2872;48.874;9.358;2023-07-29T01:38:16;0.90;;;0.90;;
5694;SDS011;2872;48.874;9.358;2023-07-29T01:40:48;1.63;;;0.90;;
5694;SDS011;2872;48.874;9.358;2023-07-29T01:43:15;2.80;;;1.10;;
5694;SDS011;2872;48.874;9.358;2023-07-29T01:45:48;3.50;;;1.30;;
5694;SDS011;2872;48.874;9.358;2023-07-29T01:48:15;1.15;;;1.05;;
5694;SDS011;2872;48.874;9.358;2023-07-29T01:50:48;6.20;;;1.70;;
5694;SDS011;2872;48.874;9.358;2023-07-29T01:53:14;4.05;;;0.95;;
5694;SDS011;2872;48.874;9.358;2023-07-29T01:55:41;1.40;;;1.00;;
5694;SDS011;2872;48.874;9.358;2023-07-29T01:58:12;4.00;;;1.10;;
5694;SDS011;2872;48.874;9.358;2023-07-29T02:00:39;1.92;;;1.10;;
5694;SDS011;2872;48.874;9.358;2023-07-29T02:03:06;2.70;;;1.10;;
5694;SDS011;2872;48.874;9.358;2023-07-29T02:05:35;3.90;;;0.90;;
5694;SDS011;2872;48.874;9.358;2023-07-29T02:08:02;1.20;;;1.10;;
5694;SDS011;2872;48.874;9.358;2023-07-29T02:10:29;1.60;;;1.00;;
5694;SDS011;2872;48.874;9.358;2023-07-29T02:12:56;2.30;;;1.20;;
5694;SDS011;2872;48.874;9.358;2023-07-29T02:15:30;1.20;;;0.90;;
5694;SDS011;2872;48.874;9.358;2023-07-29T02:17:57;3.28;;;1.10;;
5694;SDS011;2872;48.874;9.358;2023-07-29T02:20:24;3.60;;;1.20;;
5694;SDS011;2872;48.874;9.358;2023-07-29T02:22:50;1.50;;;0.90;;
5694;SDS011;2872;48.874;9.358;2023-07-29T02:25:18;1.10;;;1.00;;
5694;SDS011;2872;48.874;9.358;2023-07-29T02:27:45;1.58;;;0.90;;
5694;SDS011;2872;48.874;9.358;2023-07-29T02:30:12;1.20;;;1.00;;
5694;SDS011;2872;48.874;9.358;2023-07-29T02:32:47;2.00;;;0.90;;
5694;SDS011;2872;48.874;9.358;2023-07-29T02:35:14;2.33;;;0.90;;
5694;SDS011;2872;48.874;9.358;2023-07-29T02:37:41;1.00;;;0.90;;
5694;SDS011;2872;48.874;9.358;2023-07-29T02:40:10;3.03;;;1.30;;
5694;SDS011;2872;48.874;9.358;2023-07-29T02:42:37;0.80;;;0.80;;
5694;SDS011;2872;48.874;9.358;2023-07-29T02:45:10;1.10;;;0.80;;
5694;SDS011;2872;48.874;9.358;2023-07-29T02:47:36;0.80;;;0.60;;
5694;SDS011;2872;48.874;9.358;2023-07-29T02:50:11;1.88;;;1.20;;
5694;SDS011;2872;48.874;9.358;2023-07-29T02:52:38;4.22;;;1.00;;
5694;SDS011;2872;48.874;9.358;2023-07-29T02:55:05;1.70;;;1.00;;
5694;SDS011;2872;48.874;9.358;2023-07-29T02:57:38;3.70;;;1.10;;
5694;SDS011;2872;48.874;9.358;2023-07-29T03:00:06;0.73;;;0.73;;
5694;SDS011;2872;48.874;9.358;2023-07-29T03:02:33;1.20;;;1.10;;
5694;SDS011;2872;48.874;9.358;2023-07-29T03:05:03;1.20;;;0.90;;
5694;SDS011;2872;48.874;9.358;2023-07-29T03:07:32;1.50;;;0.98;;
5694;SDS011;2872;48.874;9.358;2023-07-29T03:09:59;1.00;;;0.90;;
5694;SDS011;2872;48.874;9.358;2023-07-29T03:12:26;1.13;;;0.90;;
5694;SDS011;2872;48.874;9.358;2023-07-29T03:14:53;3.60;;;1.00;;
5694;SDS011;2872;48.874;9.358;2023-07-29T03:17:19;1.10;;;1.00;;
5694;SDS011;2872;48.874;9.358;2023-07-29T03:19:48;1.55;;;1.02;;
5694;SDS011;2872;48.874;9.358;2023-07-29T03:22:15;1.10;;;0.85;;
5694;SDS011;2872;48.874;9.358;2023-07-29T03:24:43;8.10;;;1.00;;
5694;SDS011;2872;48.874;9.358;2023-07-29T03:27:10;1.70;;;0.80;;
5694;SDS011;2872;48.874;9.358;2023-07-29T03:29:36;1.00;;;0.90;;
5694;SDS011;2872;48.874;9.358;2023-07-29T03:32:03;1.90;;;0.80;;
5694;SDS011;2872;48.874;9.358;2023-07-29T03:34:30;1.20;;;1.00;;
5694;SDS011;2872;48.874;9.358;2023-07-29T03:36:57;5.20;;;1.05;;
5694;SDS011;2872;48.874;9.358;2023-07-29T03:39:24;1.63;;;1.00;;
5694;SDS011;2872;48.874;9.358;2023-07-29T03:41:52;1.20;;;0.80;;
5694;SDS011;2872;48.874;9.358;2023-07-29T03:44:18;1.30;;;0.90;;
5694;SDS011;2872;48.874;9.358;2023-07-29T03:46:45;1.15;;;0.90;;
5694;SDS011;2872;48.874;9.358;2023-07-29T03:49:12;2.05;;;1.02;;
5694;SDS011;2872;48.874;9.358;2023-07-29T03:51:40;1.58;;;1.00;;
5694;SDS011;2872;48.874;9.358;2023-07-29T03:54:08;2.70;;;0.90;;
5694;SDS011;2872;48.874;9.358;2023-07-29T03:56:35;2.88;;;1.20;;
5694;SDS011;2872;48.874;9.358;2023-07-29T03:59:03;1.40;;;1.10;;
5694;SDS011;2872;48.874;9.358;2023-07-29T04:01:31;1.48;;;1.02;;
5694;SDS011;2872;48.874;9.358;2023-07-29T04:04:03;1.30;;;0.90;;
5694;SDS011;2872;48.874;9.358;2023-07-29T04:06:30;5.95;;;1.02;;
5694;SDS011;2872;48.874;9.358;2023-07-29T04:08:57;1.30;;;1.20;;
5694;SDS011;2872;48.874;9.358;2023-07-29T04:11:24;3.80;;;1.13;;
5694;SDS011;2872;48.874;9.358;2023-07-29T04:13:51;1.80;;;0.70;;
5694;SDS011;2872;48.874;9.358;2023-07-29T04:16:19;1.80;;;0.90;;
5694;SDS011;2872;48.874;9.358;2023-07-29T04:18:45;7.25;;;1.20;;
5694;SDS011;2872;48.874;9.358;2023-07-29T04:21:18;4.78;;;1.02;;
5694;SDS011;2872;48.874;9.358;2023-07-29T04:23:44;1.98;;;1.77;;
5694;SDS011;2872;48.874;9.358;2023-07-29T04:26:13;2.38;;;1.60;;
5694;SDS011;2872;48.874;9.358;2023-07-29T04:28:40;4.80;;;1.88;;
5694;SDS011;2872;48.874;9.358;2023-07-29T04:31:06;3.00;;;1.20;;
5694;SDS011;2872;48.874;9.358;2023-07-29T04:33:35;1.60;;;1.40;;
5694;SDS011;2872;48.874;9.358;2023-07-29T04:36:04;1.50;;;1.10;;
5694;SDS011;2872;48.874;9.358;2023-07-29T04:38:31;1.45;;;1.35;;
5694;SDS011;2872;48.874;9.358;2023-07-29T04:40:59;1.50;;;1.40;;
5694;SDS011;2872;48.874;9.358;2023-07-29T04:43:26;3.00;;;1.38;;
5694;SDS011;2872;48.874;9.358;2023-07-29T04:45:54;2.90;;;1.00;;
5694;SDS011;2872;48.874;9.358;2023-07-29T04:48:20;5.10;;;1.10;;
5694;SDS011;2872;48.874;9.358;2023-07-29T04:50:48;6.43;;;1.52;;
5694;SDS011;2872;48.874;9.358;2023-07-29T04:53:15;2.15;;;1.30;;
5694;SDS011;2872;48.874;9.358;2023-07-29T04:55:42;3.05;;;1.73;;
5694;SDS011;2872;48.874;9.358;2023-07-29T04:58:14;2.20;;;1.50;;
5694;SDS011;2872;48.874;9.358;2023-07-29T05:00:40;2.90;;;1.30;;
5694;SDS011;2872;48.874;9.358;2023-07-29T05:03:07;1.75;;;1.60;;
5694;SDS011;2872;48.874;9.358;2023-07-29T05:05:34;4.32;;;1.50;;
5694;SDS011;2872;48.874;9.358;2023-07-29T05:08:02;3.30;;;1.40;;
5694;SDS011;2872;48.874;9.358;2023-07-29T05:10:35;1.70;;;1.20;;
5694;SDS011;2872;48.874;9.358;2023-07-29T05:13:01;4.95;;;1.70;;
5694;SDS011;2872;48.874;9.358;2023-07-29T05:15:30;1.33;;;1.23;;
5694;SDS011;2872;48.874;9.358;2023-07-29T05:17:58;1.90;;;1.63;;
5694;SDS011;2872;48.874;9.358;2023-07-29T05:20:25;2.13;;;1.30;;
5694;SDS011;2872;48.874;9.358;2023-07-29T05:22:51;1.48;;;1.38;;
5694;SDS011;2872;48.874;9.358;2023-07-29T05:25:20;1.10;;;1.00;;
5694;SDS011;2872;48.874;9.358;2023-07-29T05:27:46;2.22;;;1.35;;
5694;SDS011;2872;48.874;9.358;2023-07-29T05:30:13;2.55;;;1.02;;
5694;SDS011;2872;48.874;9.358;2023-07-29T05:32:49;2.25;;;1.30;;
5694;SDS011;2872;48.874;9.358;2023-07-29T05:35:16;3.70;;;1.30;;
5694;SDS011;2872;48.874;9.358;2023-07-29T05:37:43;3.67;;;1.40;;
5694;SDS011;2872;48.874;9.358;2023-07-29T05:40:10;1.10;;;1.00;;
5694;SDS011;2872;48.874;9.358;2023-07-29T05:42:38;1.80;;;1.10;;
5694;SDS011;2872;48.874;9.358;2023-07-29T05:45:07;1.40;;;1.10;;
5694;SDS011;2872;48.874;9.358;2023-07-29T05:47:35;1.20;;;1.10;;
5694;SDS011;2872;48.874;9.358;2023-07-29T05:50:01;1.90;;;1.40;;
5694;SDS011;2872;48.874;9.358;2023-07-29T05:52:29;3.55;;;1.20;;
5694;SDS011;2872;48.874;9.358;2023-07-29T05:54:56;2.80;;;1.40;;
5694;SDS011;2872;48.874;9.358;2023-07-29T05:57:23;2.35;;;1.40;;
5694;SDS011;2872;48.874;9.358;2023-07-29T05:59:51;3.55;;;1.63;;
5694;SDS011;2872;48.874;9.358;2023-07-29T06:02:29;4.07;;;1.20;;
5694;SDS011;2872;48.874;9.358;2023-07-29T06:04:56;2.67;;;1.50;;
5694;SDS011;2872;48.874;9.358;2023-07-29T06:07:23;2.25;;;1.33;;
5694;SDS011;2872;48.874;9.358;2023-07-29T06:09:53;1.73;;;1.20;;
5694;SDS011;2872;48.874;9.358;2023-07-29T06:12:20;1.80;;;1.20;;
5694;SDS011;2872;48.874;9.358;2023-07-29T06:14:47;2.40;;;1.60;;
5694;SDS011;2872;48.874;9.358;2023-07-29T06:17:15;1.40;;;1.20;;
5694;SDS011;2872;48.874;9.358;2023-07-29T06:19:43;1.90;;;1.30;;
5694;SDS011;2872;48.874;9.358;2023-07-29T06:22:09;2.40;;;1.60;;
5694;SDS011;2872;48.874;9.358;2023-07-29T06:24:36;1.33;;;1.23;;
5694;SDS011;2872;48.874;9.358;2023-07-29T06:27:03;1.50;;;1.40;;
5694;SDS011;2872;48.874;9.358;2023-07-29T06:29:35;2.80;;;1.52;;
5694;SDS011;2872;48.874;9.358;2023-07-29T06:32:02;3.97;;;1.40;;
5694;SDS011;2872;48.874;9.358;2023-07-29T06:34:30;2.00;;;1.30;;
5694;SDS011;2872;48.874;9.358;2023-07-29T06:36:59;1.73;;;1.60;;
5694;SDS011;2872;48.874;9.358;2023-07-29T06:39:26;3.00;;;1.10;;
5694;SDS011;2872;48.874;9.358;2023-07-29T06:41:55;3.45;;;1.10;;
5694;SDS011;2872;48.874;9.358;2023-07-29T06:44:23;2.17;;;1.20;;
5694;SDS011;2872;48.874;9.358;2023-07-29T06:46:50;1.90;;;1.50;;
5694;SDS011;2872;48.874;9.358;2023-07-29T06:49:17;1.30;;;1.10;;
5694;SDS011;2872;48.874;9.358;2023-07-29T06:51:51;2.10;;;1.20;;
5694;SDS011;2872;48.874;9.358;2023-07-29T06:54:18;1.83;;;1.60;;
5694;SDS011;2872;48.874;9.358;2023-07-29T06:56:47;3.70;;;1.85;;
5694;SDS011;2872;48.874;9.358;2023-07-29T06:59:17;3.67;;;2.10;;
5694;SDS011;2872;48.874;9.358;2023-07-29T07:01:50;2.20;;;1.63;;
5694;SDS011;2872;48.874;9.358;2023-07-29T07:04:16;2.00;;;1.52;;
5694;SDS011;2872;48.874;9.358;2023-07-29T07:06:44;4.53;;;1.35;;
5694;SDS011;2872;48.874;9.358;2023-07-29T07:09:11;1.88;;;1.60;;
5694;SDS011;2872;48.874;9.358;2023-07-29T07:11:38;1.70;;;1.40;;
5694;SDS011;2872;48.874;9.358;2023-07-29T07:14:08;1.45;;;1.33;;
5694;SDS011;2872;48.874;9.358;2023-07-29T07:16:35;1.70;;;1.60;;
5694;SDS011;2872;48.874;9.358;2023-07-29T07:19:04;1.65;;;1.40;;
5694;SDS011;2872;48.874;9.358;2023-07-29T07:21:31;2.15;;;1.58;;
5694;SDS011;2872;48.874;9.358;2023-07-29T07:23:58;2.10;;;1.60;;
5694;SDS011;2872;48.874;9.358;2023-07-29T07:26:26;4.03;;;1.73;;
5694;SDS011;2872;48.874;9.358;2023-07-29T07:28:52;2.95;;;1.70;;
5694;SDS011;2872;48.874;9.358;2023-07-29T07:31:19;5.00;;;1.80;;
5694;SDS011;2872;48.874;9.358;2023-07-29T07:33:46;5.65;;;2.25;;
5694;SDS011;2872;48.874;9.358;2023-07-29T07:36:12;2.80;;;2.10;;
5694;SDS011;2872;48.874;9.358;2023-07-29T07:38:42;4.55;;;2.00;;
5694;SDS011;2872;48.874;9.358;2023-07-29T07:41:08;4.13;;;1.60;;
5694;SDS011;2872;48.874;9.358;2023-07-29T07:43:36;3.42;;;1.90;;
5694;SDS011;2872;48.874;9.358;2023-07-29T07:46:06;1.75;;;1.60;;
5694;SDS011;2872;48.874;9.358;2023-07-29T07:48:32;3.50;;;1.67;;
5694;SDS011;2872;48.874;9.358;2023-07-29T07:50:59;2.40;;;1.80;;
5694;SDS011;2872;48.874;9.358;2023-07-29T07:53:26;1.70;;;1.60;;
5694;SDS011;2872;48.874;9.358;2023-07-29T07:55:52;1.70;;;1.60;;
5694;SDS011;2872;48.874;9.358;2023-07-29T07:58:19;5.20;;;1.65;;
5694;SDS011;2872;48.874;9.358;2023-07-29T08:00:49;2.13;;;1.60;;
5694;SDS011;2872;48.874;9.358;2023-07-29T08:03:15;2.43;;;1.50;;
5694;SDS011;2872;48.874;9.358;2023-07-29T08:05:42;10.43;;;1.70;;
5694;SDS011;2872;48.874;9.358;2023-07-29T08:08:09;4.07;;;2.42;;
5694;SDS011;2872;48.874;9.358;2023-07-29T08:10:35;4.95;;;3.00;;
5694;SDS011;2872;48.874;9.358;2023-07-29T08:13:05;10.40;;;5.15;;
5694;SDS011;2872;48.874;9.358;2023-07-29T08:15:31;4.90;;;4.40;;
5694;SDS011;2872;48.874;9.358;2023-07-29T08:18:01;4.85;;;3.10;;
5694;SDS011;2872;48.874;9.358;2023-07-29T08:20:28;4.85;;;2.78;;
5694;SDS011;2872;48.874;9.358;2023-07-29T08:22:55;9.30;;;4.40;;
5694;SDS011;2872;48.874;9.358;2023-07-29T08:25:21;2.75;;;2.53;;
5694;SDS011;2872;48.874;9.358;2023-07-29T08:27:48;5.72;;;3.25;;
5694;SDS011;2872;48.874;9.358;2023-07-29T08:30:15;1.60;;;1.50;;
5694;SDS011;2872;48.874;9.358;2023-07-29T08:32:43;2.40;;;1.40;;
5694;SDS011;2872;48.874;9.358;2023-07-29T08:35:11;5.00;;;1.90;;
5694;SDS011;2872;48.874;9.358;2023-07-29T08:37:38;1.50;;;1.40;;
5694;SDS011;2872;48.874;9.358;2023-07-29T08:40:07;1.83;;;1.43;;
5694;SDS011;2872;48.874;9.358;2023-07-29T08:42:35;1.53;;;1.30;;
5694;SDS011;2872;48.874;9.358;2023-07-29T08:45:12;1.83;;;1.40;;
5694;SDS011;2872;48.874;9.358;2023-07-29T08:47:40;4.60;;;1.25;;
5694;SDS011;2872;48.874;9.358;2023-07-29T08:50:07;2.03;;;1.15;;
5694;SDS011;2872;48.874;9.358;2023-07-29T08:52:36;1.95;;;1.20;;
5694;SDS011;2872;48.874;9.358;2023-07-29T08:55:04;1.73;;;1.00;;
5694;SDS011;2872;48.874;9.358;2023-07-29T08:57:31;1.60;;;1.40;;
5694;SDS011;2872;48.874;9.358;2023-07-29T09:00:00;3.80;;;1.23;;
5694;SDS011;2872;48.874;9.358;2023-07-29T09:02:27;3.28;;;2.42;;
5694;SDS011;2872;48.874;9.358;2023-07-29T09:04:54;9.57;;;3.80;;
5694;SDS011;2872;48.874;9.358;2023-07-29T09:07:20;8.43;;;4.38;;
5694;SDS011;2872;48.874;9.358;2023-07-29T09:09:52;4.90;;;3.58;;
5694;SDS011;2872;48.874;9.358;2023-07-29T09:12:18;4.25;;;1.77;;
5694;SDS011;2872;48.874;9.358;2023-07-29T09:14:51;5.10;;;1.70;;
5694;SDS011;2872;48.874;9.358;2023-07-29T09:17:18;2.30;;;1.30;;
5694;SDS011;2872;48.874;9.358;2023-07-29T09:19:47;3.47;;;1.50;;
5694;SDS011;2872;48.874;9.358;2023-07-29T09:22:17;1.75;;;1.35;;
5694;SDS011;2872;48.874;9.358;2023-07-29T09:24:44;2.80;;;1.30;;
5694;SDS011;2872;48.874;9.358;2023-07-29T09:27:17;2.55;;;1.30;;
5694;SDS011;2872;48.874;9.358;2023-07-29T09:29:52;7.40;;;1.10;;
5694;SDS011;2872;48.874;9.358;2023-07-29T09:32:19;1.80;;;1.10;;
5694;SDS011;2872;48.874;9.358;2023-07-29T09:34:46;1.20;;;1.10;;
5694;SDS011;2872;48.874;9.358;2023-07-29T09:37:16;1.70;;;1.38;;
5694;SDS011;2872;48.874;9.358;2023-07-29T09:39:46;1.52;;;1.10;;
5694;SDS011;2872;48.874;9.358;2023-07-29T09:42:18;1.30;;;1.20;;
5694;SDS011;2872;48.874;9.358;2023-07-29T09:44:49;1.85;;;1.20;;
5694;SDS011;2872;48.874;9.358;2023-07-29T09:47:19;4.10;;;1.43;;
5694;SDS011;2872;48.874;9.358;2023-07-29T09:49:47;2.38;;;1.17;;
5694;SDS011;2872;48.874;9.358;2023-07-29T09:52:16;2.05;;;1.38;;
5694;SDS011;2872;48.874;9.358;2023-07-29T09:54:44;0.85;;;0.85;;
5694;SDS011;2872;48.874;9.358;2023-07-29T09:57:11;2.05;;;1.23;;
5694;SDS011;2872;48.874;9.358;2023-07-29T09:59:39;1.60;;;1.00;;
5694;SDS011;2872;48.874;9.358;2023-07-29T10:02:06;1.02;;;0.93;;
5694;SDS011;2872;48.874;9.358;2023-07-29T10:04:36;1.03;;;1.03;;
5694;SDS011;2872;48.874;9.358;2023-07-29T10:07:03;1.88;;;1.10;;
5694;SDS011;2872;48.874;9.358;2023-07-29T10:09:30;1.38;;;1.10;;
5694;SDS011;2872;48.874;9.358;2023-07-29T10:11:57;1.50;;;1.20;;
5694;SDS011;2872;48.874;9.358;2023-07-29T10:14:25;1.60;;;1.20;;
5694;SDS011;2872;48.874;9.358;2023-07-29T10:16:57;1.47;;;1.13;;
5694;SDS011;2872;48.874;9.358;2023-07-29T10:19:24;1.47;;;1.10;;
5694;SDS011;2872;48.874;9.358;2023-07-29T10:21:52;1.70;;;1.10;;
5694;SDS011;2872;48.874;9.358;2023-07-29T10:24:24;2.47;;;0.98;;
5694;SDS011;2872;48.874;9.358;2023-07-29T10:26:57;3.90;;;1.40;;
5694;SDS011;2872;48.874;9.358;2023-07-29T10:29:28;3.20;;;1.30;;
5694;SDS011;2872;48.874;9.358;2023-07-29T10:31:59;4.05;;;1.75;;
5694;SDS011;2872;48.874;9.358;2023-07-29T10:34:31;1.13;;;1.00;;
5694;SDS011;2872;48.874;9.358;2023-07-29T10:36:59;4.60;;;2.80;;
5694;SDS011;2872;48.874;9.358;2023-07-29T10:39:26;1.90;;;1.00;;
5694;SDS011;2872;48.874;9.358;2023-07-29T10:41:56;1.10;;;0.90;;
5694;SDS011;2872;48.874;9.358;2023-07-29T10:47:20;1.77;;;1.20;;
5694;SDS011;2872;48.874;9.358;2023-07-29T10:49:49;2.30;;;1.20;;
5694;SDS011;2872;48.874;9.358;2023-07-29T10:52:28;2.70;;;1.00;;
5694;SDS011;2872;48.874;9.358;2023-07-29T10:54:57;3.08;;;1.50;;
5694;SDS011;2872;48.874;9.358;2023-07-29T10:57:30;1.38;;;0.90;;
5694;SDS011;2872;48.874;9.358;2023-07-29T10:59:57;1.40;;;1.30;;
5694;SDS011;2872;48.874;9.358;2023-07-29T11:02:29;1.50;;;0.90;;
5694;SDS011;2872;48.874;9.358;2023-07-29T11:04:57;2.00;;;1.40;;
5694;SDS011;2872;48.874;9.358;2023-07-29T11:07:30;2.75;;;2.15;;
5694;SDS011;2872;48.874;9.358;2023-07-29T11:10:00;1.80;;;1.30;;
5694;SDS011;2872;48.874;9.358;2023-07-29T11:12:43;1.70;;;1.42;;
5694;SDS011;2872;48.874;9.358;2023-07-29T11:15:13;1.73;;;1.20;;
5694;SDS011;2872;48.874;9.358;2023-07-29T11:17:43;1.60;;;0.90;;
5694;SDS011;2872;48.874;9.358;2023-07-29T11:20:11;1.00;;;0.90;;
5694;SDS011;2872;48.874;9.358;2023-07-29T11:22:38;2.40;;;1.30;;
5694;SDS011;2872;48.874;9.358;2023-07-29T11:25:05;0.98;;;0.77;;
5694;SDS011;2872;48.874;9.358;2023-07-29T11:27:34;1.10;;;0.98;;
5694;SDS011;2872;48.874;9.358;2023-07-29T11:30:01;1.50;;;0.80;;
5694;SDS011;2872;48.874;9.358;2023-07-29T11:32:30;1.30;;;0.95;;
5694;SDS011;2872;48.874;9.358;2023-07-29T11:35:00;1.30;;;0.60;;
5694;SDS011;2872;48.874;9.358;2023-07-29T11:37:27;0.73;;;0.73;;
5694;SDS011;2872;48.874;9.358;2023-07-29T11:39:54;4.00;;;1.00;;
5694;SDS011;2872;48.874;9.358;2023-07-29T11:42:21;1.38;;;1.00;;
5694;SDS011;2872;48.874;9.358;2023-07-29T11:44:47;0.90;;;0.90;;
5694;SDS011;2872;48.874;9.358;2023-07-29T11:47:14;0.82;;;0.60;;
5694;SDS011;2872;48.874;9.358;2023-07-29T11:49:41;1.00;;;0.90;;
5694;SDS011;2872;48.874;9.358;2023-07-29T11:52:09;1.50;;;0.70;;
5694;SDS011;2872;48.874;9.358;2023-07-29T11:54:43;0.73;;;0.60;;
5694;SDS011;2872;48.874;9.358;2023-07-29T11:57:09;0.60;;;0.60;;
5694;SDS011;2872;48.874;9.358;2023-07-29T11:59:36;1.40;;;0.70;;
5694;SDS011;2872;48.874;9.358;2023-07-29T12:02:05;1.10;;;0.60;;
5694;SDS011;2872;48.874;9.358;2023-07-29T12:04:38;0.90;;;0.80;;
5694;SDS011;2872;48.874;9.358;2023-07-29T12:07:06;0.60;;;0.60;;
5694;SDS011;2872;48.874;9.358;2023-07-29T12:09:34;1.40;;;0.90;;
5694;SDS011;2872;48.874;9.358;2023-07-29T12:12:01;1.23;;;0.82;;
5694;SDS011;2872;48.874;9.358;2023-07-29T12:14:28;0.70;;;0.70;;
5694;SDS011;2872;48.874;9.358;2023-07-29T12:17:00;1.00;;;0.80;;
5694;SDS011;2872;48.874;9.358;2023-07-29T12:19:33;1.00;;;0.90;;
5694;SDS011;2872;48.874;9.358;2023-07-29T12:22:07;2.00;;;1.37;;
5694;SDS011;2872;48.874;9.358;2023-07-29T12:24:37;1.30;;;1.20;;
5694;SDS011;2872;48.874;9.358;2023-07-29T12:27:10;1.20;;;0.93;;
5694;SDS011;2872;48.874;9.358;2023-07-29T12:29:40;2.40;;;1.10;;
5694;SDS011;2872;48.874;9.358;2023-07-29T12:32:07;1.10;;;0.90;;
5694;SDS011;2872;48.874;9.358;2023-07-29T12:34:35;0.70;;;0.70;;
5694;SDS011;2872;48.874;9.358;2023-07-29T12:37:03;1.30;;;0.90;;
5694;SDS011;2872;48.874;9.358;2023-07-29T12:39:33;1.50;;;1.00;;
5694;SDS011;2872;48.874;9.358;2023-07-29T12:42:06;3.20;;;1.40;;
5694;SDS011;2872;48.874;9.358;2023-07-29T12:44:33;1.38;;;1.27;;
5694;SDS011;2872;48.874;9.358;2023-07-29T12:47:00;1.15;;;1.10;;
5694;SDS011;2872;48.874;9.358;2023-07-29T12:49:29;1.40;;;1.20;;
5694;SDS011;2872;48.874;9.358;2023-07-29T12:51:55;1.42;;;1.10;;
5694;SDS011;2872;48.874;9.358;2023-07-29T12:54:22;1.40;;;1.17;;
5694;SDS011;2872;48.874;9.358;2023-07-29T12:56:53;1.30;;;1.20;;
5694;SDS011;2872;48.874;9.358;2023-07-29T12:59:20;1.50;;;1.20;;
5694;SDS011;2872;48.874;9.358;2023-07-29T13:01:47;1.42;;;1.20;;
5694;SDS011;2872;48.874;9.358;2023-07-29T13:04:20;1.00;;;1.00;;
5694;SDS011;2872;48.874;9.358;2023-07-29T13:06:46;2.10;;;1.60;;
5694;SDS011;2872;48.874;9.358;2023-07-29T13:09:13;5.07;;;1.70;;
5694;SDS011;2872;48.874;9.358;2023-07-29T13:11:40;4.00;;;1.40;;
5694;SDS011;2872;48.874;9.358;2023-07-29T13:14:10;2.20;;;1.30;;
5694;SDS011;2872;48.874;9.358;2023-07-29T13:16:37;2.70;;;1.10;;
5694;SDS011;2872;48.874;9.358;2023-07-29T13:19:04;1.60;;;1.15;;
5694;SDS011;2872;48.874;9.358;2023-07-29T13:21:31;1.60;;;1.50;;
5694;SDS011;2872;48.874;9.358;2023-07-29T13:23:57;3.28;;;1.30;;
5694;SDS011;2872;48.874;9.358;2023-07-29T13:26:24;4.10;;;1.20;;
5694;SDS011;2872;48.874;9.358;2023-07-29T13:28:51;1.50;;;1.30;;
5694;SDS011;2872;48.874;9.358;2023-07-29T13:31:18;1.80;;;1.00;;
5694;SDS011;2872;48.874;9.358;2023-07-29T13:33:45;1.40;;;1.15;;
5694;SDS011;2872;48.874;9.358;2023-07-29T13:36:12;2.00;;;1.27;;
5694;SDS011;2872;48.874;9.358;2023-07-29T13:38:38;1.27;;;1.17;;
5694;SDS011;2872;48.874;9.358;2023-07-29T13:41:05;1.67;;;0.90;;
5694;SDS011;2872;48.874;9.358;2023-07-29T13:43:32;1.50;;;1.33;;
5694;SDS011;2872;48.874;9.358;2023-07-29T13:45:58;1.25;;;1.15;;
5694;SDS011;2872;48.874;9.358;2023-07-29T13:48:29;1.20;;;0.98;;
5694;SDS011;2872;48.874;9.358;2023-07-29T13:51:01;4.78;;;1.30;;
5694;SDS011;2872;48.874;9.358;2023-07-29T13:53:28;1.50;;;1.40;;
5694;SDS011;2872;48.874;9.358;2023-07-29T13:55:54;1.20;;;1.10;;
5694;SDS011;2872;48.874;9.358;2023-07-29T13:58:22;2.08;;;1.30;;
5694;SDS011;2872;48.874;9.358;2023-07-29T14:00:48;1.20;;;1.10;;
5694;SDS011;2872;48.874;9.358;2023-07-29T14:03:15;1.30;;;1.20;;
5694;SDS011;2872;48.874;9.358;2023-07-29T14:05:43;2.33;;;1.27;;
5694;SDS011;2872;48.874;9.358;2023-07-29T14:08:09;2.50;;;1.27;;
5694;SDS011;2872;48.874;9.358;2023-07-29T14:10:36;1.33;;;1.23;;
5694;SDS011;2872;48.874;9.358;2023-07-29T14:13:03;1.85;;;1.17;;
5694;SDS011;2872;48.874;9.358;2023-07-29T14:15:29;1.80;;;1.30;;
5694;SDS011;2872;48.874;9.358;2023-07-29T14:17:58;2.23;;;1.43;;
5694;SDS011;2872;48.874;9.358;2023-07-29T14:20:28;2.00;;;1.10;;
5694;SDS011;2872;48.874;9.358;2023-07-29T14:22:56;2.28;;;1.20;;
5694;SDS011;2872;48.874;9.358;2023-07-29T14:25:23;1.20;;;1.10;;
5694;SDS011;2872;48.874;9.358;2023-07-29T14:27:49;2.83;;;1.20;;
5694;SDS011;2872;48.874;9.358;2023-07-29T14:30:16;1.67;;;1.08;;
5694;SDS011;2872;48.874;9.358;2023-07-29T14:32:43;1.50;;;1.40;;
5694;SDS011;2872;48.874;9.358;2023-07-29T14:35:10;3.30;;;1.40;;
5694;SDS011;2872;48.874;9.358;2023-07-29T14:37:37;3.25;;;1.48;;
5694;SDS011;2872;48.874;9.358;2023-07-29T14:40:06;1.20;;;1.10;;
5694;SDS011;2872;48.874;9.358;2023-07-29T14:42:33;1.90;;;1.38;;
5694;SDS011;2872;48.874;9.358;2023-07-29T14:44:59;1.20;;;1.10;;
5694;SDS011;2872;48.874;9.358;2023-07-29T14:47:26;1.20;;;1.10;;
5694;SDS011;2872;48.874;9.358;2023-07-29T14:49:53;5.85;;;1.35;;
5694;SDS011;2872;48.874;9.358;2023-07-29T14:52:19;1.55;;;1.30;;
5694;SDS011;2872;48.874;9.358;2023-07-29T14:54:47;1.20;;;1.10;;
5694;SDS011;2872;48.874;9.358;2023-07-29T14:57:15;2.17;;;1.30;;
5694;SDS011;2872;48.874;9.358;2023-07-29T14:59:41;4.45;;;1.63;;
5694;SDS011;2872;48.874;9.358;2023-07-29T15:02:08;3.30;;;1.67;;
5694;SDS011;2872;48.874;9.358;2023-07-29T15:04:35;2.47;;;1.60;;
5694;SDS011;2872;48.874;9.358;2023-07-29T15:07:02;3.00;;;1.30;;
5694;SDS011;2872;48.874;9.358;2023-07-29T15:09:31;2.53;;;1.70;;
5694;SDS011;2872;48.874;9.358;2023-07-29T15:11:58;1.50;;;1.40;;
5694;SDS011;2872;48.874;9.358;2023-07-29T15:14:28;3.28;;;1.50;;
5694;SDS011;2872;48.874;9.358;2023-07-29T15:16:55;3.00;;;1.40;;
5694;SDS011;2872;48.874;9.358;2023-07-29T15:19:27;2.30;;;1.00;;
5694;SDS011;2872;48.874;9.358;2023-07-29T15:21:54;1.30;;;1.20;;
5694;SDS011;2872;48.874;9.358;2023-07-29T15:24:21;4.70;;;1.70;;
5694;SDS011;2872;48.874;9.358;2023-07-29T15:26:47;2.50;;;1.80;;